Flight Track Log - Related Links

Times and Time Zones

All times are in EDT time to prevent confusion due to time zone crossing. See the DAL3688 flight status page for this flight to view local times or setup timezone preferences in your user account.

Time Position Orientation Groundspeed Altitude Reporting Facility
EDT Latitude Longitude Course Direction KTS MPH feet Rate Location/Type
Sat 10:38:01 AM 42.2031 -83.3511 174° South 153 176 1,900  Level FAA TRACON SMA TRACON (SMA)
Sat 10:38:21 AM 42.1867 -83.3486 174° South 176 203 2,700 2,400 Climbing FAA TRACON SMA TRACON (SMA)
Sat 10:38:41 AM 42.1719 -83.3461 173° South 194 223 3,500 2,400 Climbing FAA TRACON SMA TRACON (SMA)
Sat 10:39:01 AM 42.1503 -83.3422 172° South 234 269 4,300 2,400 Climbing FAA TRACON SMA TRACON (SMA)
Sat 10:39:21 AM 42.1314 -83.3375 169° South 244 281 5,100 3,000 Climbing FAA TRACON SMA TRACON (SMA)
Sat 10:39:41 AM 42.1047 -83.3278 165° South 282 325 6,300 4,050 Climbing FAA TRACON SMA TRACON (SMA)
Sat 10:40:01 AM 42.0869 -83.3006 131° Southeast 286 329 7,800 3,081 Climbing FAA TRACON SMA TRACON (SMA)
Sat 10:40:18 AM 42.0742 -83.2772 126° Southeast 304 350 8,200 1,404 Climbing Cleveland Center
Sat 10:41:35 AM 42.0356 -83.1469 112° Southeast 333 383 10,000 920 Climbing Cleveland Center
Sat 10:42:35 AM 42.0719 -83.0083 70° East 338 389 10,300 1,500 Climbing Cleveland Center
Sat 10:43:35 AM 42.1122 -82.8644 69° East 367 422 13,000 2,587 Climbing Cleveland Center
Sat 10:45:22 AM 42.1875 -82.5961 69° East 417 480 17,500 2,381 Climbing FAA TRACON SMA TRACON (SMA)
Sat 10:45:41 AM 42.2000 -82.5489 70° East 432 497 18,000 1,846 Climbing FAA TRACON SMA TRACON (SMA)
Sat 10:46:01 AM 42.2153 -82.4886 71° East 439 505 18,700 1,650 Climbing FAA TRACON SMA TRACON (SMA)
Sat 10:46:21 AM 42.2225 -82.4378 79° East 451 519 19,100 1,200 Climbing FAA TRACON SMA TRACON (SMA)
Sat 10:46:41 AM 42.2214 -82.3872 92° East 440 506 19,500 1,350 Climbing FAA TRACON SMA TRACON (SMA)
Sat 10:47:01 AM 42.2169 -82.3233 95° East 445 512 20,000 1,350 Climbing FAA TRACON SMA TRACON (SMA)
Sat 10:47:21 AM 42.2131 -82.2717 96° East 448 516 20,400 1,200 Climbing FAA TRACON SMA TRACON (SMA)
Sat 10:47:41 AM 42.2103 -82.2197 94° East 451 519 20,800 1,200 Climbing FAA TRACON SMA TRACON (SMA)
Sat 10:48:01 AM 42.2075 -82.1669 94° East 455 524 21,200 400 Climbing FAA TRACON SMA TRACON (SMA)
Sat 10:48:41 AM 42.2075 -82.1669 270° West 455 524 21,200 1,404 Level FAA TRACON SMA TRACON (SMA)
Sat 10:49:35 AM 42.1586 -81.9025 104° East 454 522 23,400 1,842 Climbing Cleveland Center
Sat 10:50:35 AM 42.0744 -81.8028 139° Southeast 413 475 24,700 1,250 Climbing Cleveland Center
Sat 10:51:35 AM 41.9858 -81.7061 141° Southeast 405 466 25,900 1,100 Climbing Cleveland Center
Sat 10:52:35 AM 41.8969 -81.6014 139° Southeast 416 479 26,900 550 Climbing Cleveland Center
Sat 10:53:35 AM 41.8186 -81.5081 138° Southeast 421 484 27,000 50 Climbing Cleveland Center
Sat 10:54:35 AM 41.7236 -81.4011 140° Southeast 439 505 27,000  Level Cleveland Center
Sat 10:55:35 AM 41.6283 -81.2914 139° Southeast 453 521 27,000  Level Cleveland Center
Sat 10:56:35 AM 41.5311 -81.1822 140° Southeast 453 521 27,000  Level Cleveland Center
Sat 10:57:35 AM 41.4547 -81.0097 121° Southeast 478 550 27,000  Level Cleveland Center
Sat 10:58:35 AM 41.3928 -80.8461 117° Southeast 490 564 27,000  Level Cleveland Center
Sat 10:59:35 AM 41.3303 -80.6800 117° Southeast 501 577 27,000  Level Cleveland Center
Sat 11:00:35 AM 41.2825 -80.5003 109° East 508 585 27,000  Level Cleveland Center
Sat 11:01:35 AM 41.2428 -80.3567 110° East 508 585 27,000  Level Cleveland Center
Sat 11:02:35 AM 41.1922 -80.1581 109° East 508 585 27,000  Level Cleveland Center
Sat 11:03:35 AM 41.1392 -79.9794 111° Southeast 513 590 27,000  Level Cleveland Center
Sat 11:04:35 AM 41.0922 -79.8006 109° East 513 590 27,000 -99 Level Cleveland Center
Sat 11:05:36 AM 41.0428 -79.6169 110° East 513 590 26,800 -600 Descending Cleveland Center
Sat 11:06:35 AM 40.9933 -79.4414 110° East 513 590 25,800 -1,008 Descending Cleveland Center
Sat 11:07:35 AM 40.9456 -79.2692 110° East 507 583 24,800 -1,000 Descending Cleveland Center
Sat 11:08:35 AM 40.8956 -79.0942 111° Southeast 507 583 23,800 -1,000 Descending Cleveland Center
Sat 11:09:35 AM 40.8472 -78.9253 111° Southeast 507 583 22,800 -1,000 Descending Cleveland Center
Sat 11:10:35 AM 40.7989 -78.7592 111° Southeast 501 577 21,800 -1,000 Descending Cleveland Center
Sat 11:11:35 AM 40.7525 -78.5958 111° Southeast 488 562 20,800 -1,000 Descending Cleveland Center
Sat 11:12:35 AM 40.7036 -78.4331 112° Southeast 483 556 19,800 -1,000 Descending Cleveland Center
Sat 11:14:23 AM 40.6211 -78.1458 111° Southeast 462 532 18,000 -1,000 Descending New York Center
Sat 11:15:23 AM 40.5744 -77.9906 112° Southeast 462 532 17,000 -1,100 Descending New York Center
Sat 11:16:23 AM 40.5244 -77.8186 111° Southeast 462 532 15,800 -1,091 Descending New York Center
Sat 11:17:24 AM 40.4811 -77.6694 111° Southeast 454 522 14,800 -1,311 Descending New York Center
Sat 11:18:22 AM 40.4392 -77.5289 111° Southeast 422 486 13,200 -1,664 Descending New York Center
Sat 11:19:23 AM 40.4039 -77.4164 112° Southeast 385 443 11,500 -1,714 Descending New York Center
Sat 11:20:21 AM 40.3689 -77.2931 110° East 337 388 9,800 -1,311 Descending New York Center
Sat 11:21:22 AM 40.3386 -77.2003 113° Southeast 307 353 8,900 -1,525 Descending New York Center
Sat 11:22:23 AM 40.2697 -77.1258 140° Southeast 286 329 6,700 -1,900 Descending New York Center
Sat 11:23:22 AM 40.2206 -77.0697 139° Southeast 278 320 5,100 -843 Descending New York Center
Sat 11:24:24 AM 40.1836 -76.9794 118° Southeast 264 304 5,000 -49 Descending New York Center
Sat 11:25:24 AM 40.1561 -76.9064 116° Southeast 249 287 5,000  Level New York Center
Sat 11:26:22 AM 40.1228 -76.8272 119° Southeast 235 270 5,000 -508 Level New York Center
Sat 11:27:22 AM 40.0969 -76.7600 117° Southeast 230 265 4,000 -958 Descending New York Center
Sat 11:28:21 AM 40.1111 -76.6853 76° East 195 224 3,100 -942 Descending New York Center
Sat 11:29:23 AM 40.1519 -76.6614 24° Northeast 160 184 2,100 -492 Descending New York Center
Sat 11:30:23 AM 40.1828 -76.6261 41° Northeast 160 184 2,100 3,421 Level New York Center
Sat 11:31:24 AM 40.2161 -76.5881 41° Northeast 160 184 9,000 6,787 Climbing New York Center
Sat 11:33:00 AM 40.1833 -76.7500 329° Northwest  Level FlightAware Approximate

Login

Don't have an account? Register now (free) for customized features, flight alerts, and more!